sensor_id;sensor_type;location;lat;lon;timestamp;P1;durP1;ratioP1;P2;durP2;ratioP2
22697;SDS011;11516;51.612;7.510;2022-07-29T00:00:48;4.40;;;1.52;;
22697;SDS011;11516;51.612;7.510;2022-07-29T00:03:13;4.03;;;1.33;;
22697;SDS011;11516;51.612;7.510;2022-07-29T00:05:39;2.50;;;1.52;;
22697;SDS011;11516;51.612;7.510;2022-07-29T00:08:06;3.58;;;1.38;;
22697;SDS011;11516;51.612;7.510;2022-07-29T00:10:33;5.57;;;1.60;;
22697;SDS011;11516;51.612;7.510;2022-07-29T00:12:59;2.37;;;1.57;;
22697;SDS011;11516;51.612;7.510;2022-07-29T00:15:25;6.75;;;1.77;;
22697;SDS011;11516;51.612;7.510;2022-07-29T00:17:51;6.00;;;1.40;;
22697;SDS011;11516;51.612;7.510;2022-07-29T00:20:16;3.33;;;1.42;;
22697;SDS011;11516;51.612;7.510;2022-07-29T00:22:48;5.75;;;1.50;;
22697;SDS011;11516;51.612;7.510;2022-07-29T00:25:19;4.20;;;2.03;;
22697;SDS011;11516;51.612;7.510;2022-07-29T00:27:55;5.88;;;2.40;;
22697;SDS011;11516;51.612;7.510;2022-07-29T00:30:38;3.28;;;1.52;;
22697;SDS011;11516;51.612;7.510;2022-07-29T00:33:09;3.13;;;1.70;;
22697;SDS011;11516;51.612;7.510;2022-07-29T00:36:35;5.55;;;1.60;;
22697;SDS011;11516;51.612;7.510;2022-07-29T00:39:17;2.97;;;1.50;;
22697;SDS011;11516;51.612;7.510;2022-07-29T00:41:43;3.45;;;1.70;;
22697;SDS011;11516;51.612;7.510;2022-07-29T00:44:14;6.32;;;1.98;;
22697;SDS011;11516;51.612;7.510;2022-07-29T00:47:14;3.20;;;1.90;;
22697;SDS011;11516;51.612;7.510;2022-07-29T00:49:44;3.17;;;1.45;;
22697;SDS011;11516;51.612;7.510;2022-07-29T00:52:13;6.45;;;1.65;;
22697;SDS011;11516;51.612;7.510;2022-07-29T00:54:52;4.13;;;1.50;;
22697;SDS011;11516;51.612;7.510;2022-07-29T00:59:53;4.15;;;1.60;;
22697;SDS011;11516;51.612;7.510;2022-07-29T01:02:19;4.40;;;1.50;;
22697;SDS011;11516;51.612;7.510;2022-07-29T01:04:45;4.13;;;1.60;;
22697;SDS011;11516;51.612;7.510;2022-07-29T01:07:10;4.85;;;1.35;;
22697;SDS011;11516;51.612;7.510;2022-07-29T01:09:36;5.30;;;1.60;;
22697;SDS011;11516;51.612;7.510;2022-07-29T01:12:03;4.45;;;2.00;;
22697;SDS011;11516;51.612;7.510;2022-07-29T01:14:29;3.50;;;1.50;;
22697;SDS011;11516;51.612;7.510;2022-07-29T01:17:00;5.37;;;1.70;;
22697;SDS011;11516;51.612;7.510;2022-07-29T01:19:37;5.72;;;1.85;;
22697;SDS011;11516;51.612;7.510;2022-07-29T01:22:31;5.18;;;1.60;;
22697;SDS011;11516;51.612;7.510;2022-07-29T01:25:17;5.35;;;1.73;;
22697;SDS011;11516;51.612;7.510;2022-07-29T01:31:01;3.78;;;1.40;;
22697;SDS011;11516;51.612;7.510;2022-07-29T01:33:29;3.75;;;1.50;;
22697;SDS011;11516;51.612;7.510;2022-07-29T01:36:23;5.45;;;1.90;;
22697;SDS011;11516;51.612;7.510;2022-07-29T01:38:54;2.50;;;1.55;;
22697;SDS011;11516;51.612;7.510;2022-07-29T01:41:27;3.95;;;2.10;;
22697;SDS011;11516;51.612;7.510;2022-07-29T01:43:59;3.47;;;1.67;;
22697;SDS011;11516;51.612;7.510;2022-07-29T01:46:30;3.42;;;1.40;;
22697;SDS011;11516;51.612;7.510;2022-07-29T01:49:01;3.22;;;1.63;;
22697;SDS011;11516;51.612;7.510;2022-07-29T01:51:35;2.80;;;1.40;;
22697;SDS011;11516;51.612;7.510;2022-07-29T01:56:42;5.15;;;1.42;;
22697;SDS011;11516;51.612;7.510;2022-07-29T01:59:09;3.65;;;1.60;;
22697;SDS011;11516;51.612;7.510;2022-07-29T02:01:36;3.17;;;1.48;;
22697;SDS011;11516;51.612;7.510;2022-07-29T02:04:04;3.43;;;1.50;;
22697;SDS011;11516;51.612;7.510;2022-07-29T02:06:32;7.22;;;3.03;;
22697;SDS011;11516;51.612;7.510;2022-07-29T02:08:59;5.38;;;2.30;;
22697;SDS011;11516;51.612;7.510;2022-07-29T02:11:26;5.72;;;2.72;;
22697;SDS011;11516;51.612;7.510;2022-07-29T02:13:53;4.30;;;1.80;;
22697;SDS011;11516;51.612;7.510;2022-07-29T02:16:21;4.72;;;1.30;;
22697;SDS011;11516;51.612;7.510;2022-07-29T02:18:49;5.13;;;1.50;;
22697;SDS011;11516;51.612;7.510;2022-07-29T02:21:21;2.65;;;1.48;;
22697;SDS011;11516;51.612;7.510;2022-07-29T02:23:49;1.70;;;1.27;;
22697;SDS011;11516;51.612;7.510;2022-07-29T02:26:19;3.47;;;1.67;;
22697;SDS011;11516;51.612;7.510;2022-07-29T02:28:48;3.10;;;1.60;;
22697;SDS011;11516;51.612;7.510;2022-07-29T02:31:16;3.83;;;1.42;;
22697;SDS011;11516;51.612;7.510;2022-07-29T02:33:44;4.95;;;1.75;;
22697;SDS011;11516;51.612;7.510;2022-07-29T02:36:12;3.20;;;1.52;;
22697;SDS011;11516;51.612;7.510;2022-07-29T02:38:38;4.30;;;1.33;;
22697;SDS011;11516;51.612;7.510;2022-07-29T02:41:16;3.67;;;1.60;;
22697;SDS011;11516;51.612;7.510;2022-07-29T02:43:45;2.67;;;1.30;;
22697;SDS011;11516;51.612;7.510;2022-07-29T02:46:35;3.70;;;1.80;;
22697;SDS011;11516;51.612;7.510;2022-07-29T02:49:09;4.00;;;1.60;;
22697;SDS011;11516;51.612;7.510;2022-07-29T02:51:46;5.90;;;1.73;;
22697;SDS011;11516;51.612;7.510;2022-07-29T02:57:42;3.60;;;1.40;;
22697;SDS011;11516;51.612;7.510;2022-07-29T03:00:09;4.45;;;2.03;;
22697;SDS011;11516;51.612;7.510;2022-07-29T03:02:37;5.90;;;3.58;;
22697;SDS011;11516;51.612;7.510;2022-07-29T03:05:06;5.97;;;2.40;;
22697;SDS011;11516;51.612;7.510;2022-07-29T03:07:35;5.00;;;1.50;;
22697;SDS011;11516;51.612;7.510;2022-07-29T03:10:02;3.67;;;1.63;;
22697;SDS011;11516;51.612;7.510;2022-07-29T03:12:29;5.30;;;1.88;;
22697;SDS011;11516;51.612;7.510;2022-07-29T03:14:55;3.83;;;1.52;;
22697;SDS011;11516;51.612;7.510;2022-07-29T03:17:21;3.33;;;1.60;;
22697;SDS011;11516;51.612;7.510;2022-07-29T03:19:48;4.30;;;1.70;;
22697;SDS011;11516;51.612;7.510;2022-07-29T03:22:13;3.22;;;1.75;;
22697;SDS011;11516;51.612;7.510;2022-07-29T03:24:39;3.53;;;1.70;;
22697;SDS011;11516;51.612;7.510;2022-07-29T03:27:05;4.80;;;2.00;;
22697;SDS011;11516;51.612;7.510;2022-07-29T03:29:31;4.85;;;1.65;;
22697;SDS011;11516;51.612;7.510;2022-07-29T03:31:57;2.72;;;1.50;;
22697;SDS011;11516;51.612;7.510;2022-07-29T03:34:23;2.42;;;1.35;;
22697;SDS011;11516;51.612;7.510;2022-07-29T03:36:49;5.80;;;1.77;;
22697;SDS011;11516;51.612;7.510;2022-07-29T03:39:17;5.30;;;1.33;;
22697;SDS011;11516;51.612;7.510;2022-07-29T03:41:47;5.32;;;1.73;;
22697;SDS011;11516;51.612;7.510;2022-07-29T03:44:15;3.03;;;1.60;;
22697;SDS011;11516;51.612;7.510;2022-07-29T03:46:43;3.90;;;1.50;;
22697;SDS011;11516;51.612;7.510;2022-07-29T03:49:11;4.47;;;1.50;;
22697;SDS011;11516;51.612;7.510;2022-07-29T03:51:39;2.75;;;1.38;;
22697;SDS011;11516;51.612;7.510;2022-07-29T03:54:05;4.03;;;1.70;;
22697;SDS011;11516;51.612;7.510;2022-07-29T03:56:32;3.67;;;1.60;;
22697;SDS011;11516;51.612;7.510;2022-07-29T03:59:02;3.15;;;1.73;;
22697;SDS011;11516;51.612;7.510;2022-07-29T04:01:29;6.03;;;2.10;;
22697;SDS011;11516;51.612;7.510;2022-07-29T04:03:57;3.65;;;1.60;;
22697;SDS011;11516;51.612;7.510;2022-07-29T04:06:23;3.35;;;1.60;;
22697;SDS011;11516;51.612;7.510;2022-07-29T04:08:50;3.97;;;1.77;;
22697;SDS011;11516;51.612;7.510;2022-07-29T04:11:16;4.30;;;1.60;;
22697;SDS011;11516;51.612;7.510;2022-07-29T04:13:41;4.43;;;1.98;;
22697;SDS011;11516;51.612;7.510;2022-07-29T04:16:07;4.23;;;1.70;;
22697;SDS011;11516;51.612;7.510;2022-07-29T04:18:33;3.60;;;1.75;;
22697;SDS011;11516;51.612;7.510;2022-07-29T04:20:59;5.95;;;3.40;;
22697;SDS011;11516;51.612;7.510;2022-07-29T04:23:26;4.10;;;2.08;;
22697;SDS011;11516;51.612;7.510;2022-07-29T04:25:57;3.50;;;1.77;;
22697;SDS011;11516;51.612;7.510;2022-07-29T04:28:23;8.57;;;4.23;;
22697;SDS011;11516;51.612;7.510;2022-07-29T04:30:48;4.83;;;2.03;;
22697;SDS011;11516;51.612;7.510;2022-07-29T04:33:14;2.93;;;1.77;;
22697;SDS011;11516;51.612;7.510;2022-07-29T04:35:40;5.13;;;1.97;;
22697;SDS011;11516;51.612;7.510;2022-07-29T04:38:08;3.83;;;2.10;;
22697;SDS011;11516;51.612;7.510;2022-07-29T04:40:33;4.30;;;2.07;;
22697;SDS011;11516;51.612;7.510;2022-07-29T04:43:00;5.10;;;1.77;;
22697;SDS011;11516;51.612;7.510;2022-07-29T04:45:27;5.55;;;1.73;;
22697;SDS011;11516;51.612;7.510;2022-07-29T04:47:52;4.53;;;1.95;;
22697;SDS011;11516;51.612;7.510;2022-07-29T04:50:19;5.13;;;2.60;;
22697;SDS011;11516;51.612;7.510;2022-07-29T04:52:47;5.25;;;2.30;;
22697;SDS011;11516;51.612;7.510;2022-07-29T04:55:12;4.93;;;2.10;;
22697;SDS011;11516;51.612;7.510;2022-07-29T04:57:38;8.23;;;2.77;;
22697;SDS011;11516;51.612;7.510;2022-07-29T05:00:04;9.05;;;2.78;;
22697;SDS011;11516;51.612;7.510;2022-07-29T05:02:30;6.63;;;2.60;;
22697;SDS011;11516;51.612;7.510;2022-07-29T05:04:56;6.40;;;2.30;;
22697;SDS011;11516;51.612;7.510;2022-07-29T05:07:22;4.57;;;2.25;;
22697;SDS011;11516;51.612;7.510;2022-07-29T05:09:48;5.57;;;2.13;;
22697;SDS011;11516;51.612;7.510;2022-07-29T05:12:14;5.73;;;2.53;;
22697;SDS011;11516;51.612;7.510;2022-07-29T05:14:39;3.20;;;2.10;;
22697;SDS011;11516;51.612;7.510;2022-07-29T05:17:08;3.33;;;2.17;;
22697;SDS011;11516;51.612;7.510;2022-07-29T05:19:33;9.35;;;3.17;;
22697;SDS011;11516;51.612;7.510;2022-07-29T05:21:59;5.40;;;2.47;;
22697;SDS011;11516;51.612;7.510;2022-07-29T05:24:25;5.87;;;1.83;;
22697;SDS011;11516;51.612;7.510;2022-07-29T05:26:53;4.55;;;1.90;;
22697;SDS011;11516;51.612;7.510;2022-07-29T05:29:21;5.05;;;2.00;;
22697;SDS011;11516;51.612;7.510;2022-07-29T05:31:47;3.63;;;1.73;;
22697;SDS011;11516;51.612;7.510;2022-07-29T05:34:13;5.07;;;1.93;;
22697;SDS011;11516;51.612;7.510;2022-07-29T05:36:39;3.05;;;1.83;;
22697;SDS011;11516;51.612;7.510;2022-07-29T05:39:04;3.80;;;1.67;;
22697;SDS011;11516;51.612;7.510;2022-07-29T05:41:33;3.65;;;1.75;;
22697;SDS011;11516;51.612;7.510;2022-07-29T05:43:59;7.15;;;2.00;;
22697;SDS011;11516;51.612;7.510;2022-07-29T05:46:24;4.73;;;1.87;;
22697;SDS011;11516;51.612;7.510;2022-07-29T05:48:50;3.67;;;2.35;;
22697;SDS011;11516;51.612;7.510;2022-07-29T05:51:16;2.78;;;1.70;;
22697;SDS011;11516;51.612;7.510;2022-07-29T05:53:44;3.00;;;1.90;;
22697;SDS011;11516;51.612;7.510;2022-07-29T05:56:10;3.72;;;1.80;;
22697;SDS011;11516;51.612;7.510;2022-07-29T05:58:36;6.40;;;1.90;;
22697;SDS011;11516;51.612;7.510;2022-07-29T06:01:02;2.92;;;1.83;;
22697;SDS011;11516;51.612;7.510;2022-07-29T06:03:28;3.57;;;2.00;;
22697;SDS011;11516;51.612;7.510;2022-07-29T06:05:57;4.78;;;1.80;;
22697;SDS011;11516;51.612;7.510;2022-07-29T06:08:23;2.10;;;1.60;;
22697;SDS011;11516;51.612;7.510;2022-07-29T06:10:48;4.32;;;1.73;;
22697;SDS011;11516;51.612;7.510;2022-07-29T06:13:14;4.68;;;1.80;;
22697;SDS011;11516;51.612;7.510;2022-07-29T06:15:41;3.55;;;1.70;;
22697;SDS011;11516;51.612;7.510;2022-07-29T06:18:09;4.07;;;1.83;;
22697;SDS011;11516;51.612;7.510;2022-07-29T06:20:35;4.28;;;1.80;;
22697;SDS011;11516;51.612;7.510;2022-07-29T06:23:01;4.63;;;1.73;;
22697;SDS011;11516;51.612;7.510;2022-07-29T06:25:29;4.72;;;2.00;;
22697;SDS011;11516;51.612;7.510;2022-07-29T06:27:57;3.13;;;1.60;;
22697;SDS011;11516;51.612;7.510;2022-07-29T06:30:23;2.63;;;1.58;;
22697;SDS011;11516;51.612;7.510;2022-07-29T06:32:51;3.05;;;1.80;;
22697;SDS011;11516;51.612;7.510;2022-07-29T06:35:17;3.83;;;1.98;;
22697;SDS011;11516;51.612;7.510;2022-07-29T06:37:45;4.75;;;1.90;;
22697;SDS011;11516;51.612;7.510;2022-07-29T06:40:11;5.38;;;2.25;;
22697;SDS011;11516;51.612;7.510;2022-07-29T06:42:55;4.50;;;2.10;;
22697;SDS011;11516;51.612;7.510;2022-07-29T06:45:21;4.30;;;2.08;;
22697;SDS011;11516;51.612;7.510;2022-07-29T06:47:46;4.28;;;1.83;;
22697;SDS011;11516;51.612;7.510;2022-07-29T06:50:13;4.80;;;2.00;;
22697;SDS011;11516;51.612;7.510;2022-07-29T06:52:39;4.93;;;1.80;;
22697;SDS011;11516;51.612;7.510;2022-07-29T06:55:06;2.47;;;1.73;;
22697;SDS011;11516;51.612;7.510;2022-07-29T06:57:32;2.08;;;1.30;;
22697;SDS011;11516;51.612;7.510;2022-07-29T06:59:57;6.10;;;1.80;;
22697;SDS011;11516;51.612;7.510;2022-07-29T07:02:30;5.30;;;1.90;;
22697;SDS011;11516;51.612;7.510;2022-07-29T07:04:59;4.07;;;1.88;;
22697;SDS011;11516;51.612;7.510;2022-07-29T07:07:24;4.30;;;1.90;;
22697;SDS011;11516;51.612;7.510;2022-07-29T07:09:50;3.53;;;1.85;;
22697;SDS011;11516;51.612;7.510;2022-07-29T07:12:16;5.65;;;1.85;;
22697;SDS011;11516;51.612;7.510;2022-07-29T07:14:45;3.20;;;1.70;;
22697;SDS011;11516;51.612;7.510;2022-07-29T07:17:10;4.97;;;1.70;;
22697;SDS011;11516;51.612;7.510;2022-07-29T07:19:38;5.55;;;3.05;;
22697;SDS011;11516;51.612;7.510;2022-07-29T07:22:04;6.25;;;2.35;;
22697;SDS011;11516;51.612;7.510;2022-07-29T07:24:42;8.45;;;1.90;;
22697;SDS011;11516;51.612;7.510;2022-07-29T07:27:08;5.22;;;1.75;;
22697;SDS011;11516;51.612;7.510;2022-07-29T07:29:36;4.30;;;1.80;;
22697;SDS011;11516;51.612;7.510;2022-07-29T07:32:06;4.05;;;1.90;;
22697;SDS011;11516;51.612;7.510;2022-07-29T07:34:34;4.10;;;1.50;;
22697;SDS011;11516;51.612;7.510;2022-07-29T07:37:02;2.33;;;1.70;;
22697;SDS011;11516;51.612;7.510;2022-07-29T07:39:33;6.55;;;2.03;;
22697;SDS011;11516;51.612;7.510;2022-07-29T07:41:59;4.38;;;1.90;;
22697;SDS011;11516;51.612;7.510;2022-07-29T07:44:25;3.53;;;1.80;;
22697;SDS011;11516;51.612;7.510;2022-07-29T07:46:51;6.53;;;3.08;;
22697;SDS011;11516;51.612;7.510;2022-07-29T07:49:17;5.65;;;2.60;;
22697;SDS011;11516;51.612;7.510;2022-07-29T07:51:46;4.05;;;2.10;;
22697;SDS011;11516;51.612;7.510;2022-07-29T07:54:12;3.45;;;1.83;;
22697;SDS011;11516;51.612;7.510;2022-07-29T07:56:40;4.30;;;2.05;;
22697;SDS011;11516;51.612;7.510;2022-07-29T07:59:08;5.82;;;1.88;;
22697;SDS011;11516;51.612;7.510;2022-07-29T08:01:34;4.70;;;1.80;;
22697;SDS011;11516;51.612;7.510;2022-07-29T08:04:07;4.53;;;1.80;;
22697;SDS011;11516;51.612;7.510;2022-07-29T08:06:33;5.30;;;1.67;;
22697;SDS011;11516;51.612;7.510;2022-07-29T08:09:05;3.38;;;1.90;;
22697;SDS011;11516;51.612;7.510;2022-07-29T08:11:34;5.18;;;2.03;;
22697;SDS011;11516;51.612;7.510;2022-07-29T08:13:59;3.33;;;1.97;;
22697;SDS011;11516;51.612;7.510;2022-07-29T08:16:26;7.80;;;2.13;;
22697;SDS011;11516;51.612;7.510;2022-07-29T08:18:55;4.35;;;1.92;;
22697;SDS011;11516;51.612;7.510;2022-07-29T08:21:29;5.05;;;2.08;;
22697;SDS011;11516;51.612;7.510;2022-07-29T08:24:01;3.60;;;1.58;;
22697;SDS011;11516;51.612;7.510;2022-07-29T08:26:48;5.93;;;1.55;;
22697;SDS011;11516;51.612;7.510;2022-07-29T08:29:20;4.57;;;1.70;;
22697;SDS011;11516;51.612;7.510;2022-07-29T08:31:51;4.13;;;2.03;;
22697;SDS011;11516;51.612;7.510;2022-07-29T08:34:20;6.25;;;2.00;;
22697;SDS011;11516;51.612;7.510;2022-07-29T08:36:53;3.80;;;1.83;;
22697;SDS011;11516;51.612;7.510;2022-07-29T08:39:25;4.80;;;2.50;;
22697;SDS011;11516;51.612;7.510;2022-07-29T08:41:51;4.57;;;1.88;;
22697;SDS011;11516;51.612;7.510;2022-07-29T08:44:24;5.55;;;2.30;;
22697;SDS011;11516;51.612;7.510;2022-07-29T08:46:55;5.60;;;2.15;;
22697;SDS011;11516;51.612;7.510;2022-07-29T08:49:26;5.45;;;1.63;;
22697;SDS011;11516;51.612;7.510;2022-07-29T08:51:55;4.60;;;2.23;;
22697;SDS011;11516;51.612;7.510;2022-07-29T08:54:26;4.05;;;1.98;;
22697;SDS011;11516;51.612;7.510;2022-07-29T08:56:53;5.13;;;2.00;;
22697;SDS011;11516;51.612;7.510;2022-07-29T08:59:26;5.20;;;2.27;;
22697;SDS011;11516;51.612;7.510;2022-07-29T09:01:56;4.47;;;2.05;;
22697;SDS011;11516;51.612;7.510;2022-07-29T09:04:34;4.07;;;1.80;;
22697;SDS011;11516;51.612;7.510;2022-07-29T09:07:05;5.40;;;2.20;;
22697;SDS011;11516;51.612;7.510;2022-07-29T09:09:44;4.35;;;1.90;;
22697;SDS011;11516;51.612;7.510;2022-07-29T09:12:14;5.35;;;1.92;;
22697;SDS011;11516;51.612;7.510;2022-07-29T09:14:43;4.75;;;2.60;;
22697;SDS011;11516;51.612;7.510;2022-07-29T09:17:16;6.10;;;2.33;;
22697;SDS011;11516;51.612;7.510;2022-07-29T09:19:43;4.93;;;1.98;;
22697;SDS011;11516;51.612;7.510;2022-07-29T09:22:09;3.42;;;1.90;;
22697;SDS011;11516;51.612;7.510;2022-07-29T09:24:39;3.70;;;1.85;;
22697;SDS011;11516;51.612;7.510;2022-07-29T09:27:20;5.40;;;1.90;;
22697;SDS011;11516;51.612;7.510;2022-07-29T09:30:00;8.57;;;2.30;;
22697;SDS011;11516;51.612;7.510;2022-07-29T09:32:54;4.97;;;1.70;;
22697;SDS011;11516;51.612;7.510;2022-07-29T09:35:23;5.53;;;2.50;;
22697;SDS011;11516;51.612;7.510;2022-07-29T09:37:50;4.03;;;1.77;;
22697;SDS011;11516;51.612;7.510;2022-07-29T09:40:20;3.67;;;1.90;;
22697;SDS011;11516;51.612;7.510;2022-07-29T09:42:49;5.93;;;1.95;;
22697;SDS011;11516;51.612;7.510;2022-07-29T09:47:59;2.78;;;1.80;;
22697;SDS011;11516;51.612;7.510;2022-07-29T09:50:44;5.57;;;2.10;;
22697;SDS011;11516;51.612;7.510;2022-07-29T09:53:11;4.40;;;2.00;;
22697;SDS011;11516;51.612;7.510;2022-07-29T09:55:54;4.77;;;2.40;;
22697;SDS011;11516;51.612;7.510;2022-07-29T09:58:20;7.07;;;2.80;;
22697;SDS011;11516;51.612;7.510;2022-07-29T10:00:48;5.63;;;2.97;;
22697;SDS011;11516;51.612;7.510;2022-07-29T10:03:17;4.35;;;2.55;;
22697;SDS011;11516;51.612;7.510;2022-07-29T10:05:44;5.95;;;2.60;;
22697;SDS011;11516;51.612;7.510;2022-07-29T10:08:11;4.78;;;2.78;;
22697;SDS011;11516;51.612;7.510;2022-07-29T10:10:41;5.50;;;2.40;;
22697;SDS011;11516;51.612;7.510;2022-07-29T10:13:11;6.47;;;2.50;;
22697;SDS011;11516;51.612;7.510;2022-07-29T10:15:39;6.05;;;2.53;;
22697;SDS011;11516;51.612;7.510;2022-07-29T10:18:08;4.47;;;2.75;;
22697;SDS011;11516;51.612;7.510;2022-07-29T10:20:34;7.07;;;2.83;;
22697;SDS011;11516;51.612;7.510;2022-07-29T10:23:00;4.10;;;2.80;;
22697;SDS011;11516;51.612;7.510;2022-07-29T10:25:26;4.80;;;2.78;;
22697;SDS011;11516;51.612;7.510;2022-07-29T10:27:52;4.00;;;2.65;;
22697;SDS011;11516;51.612;7.510;2022-07-29T10:30:19;5.03;;;3.00;;
22697;SDS011;11516;51.612;7.510;2022-07-29T10:38:31;7.63;;;3.28;;
22697;SDS011;11516;51.612;7.510;2022-07-29T10:46:26;8.13;;;3.72;;
22697;SDS011;11516;51.612;7.510;2022-07-29T10:57:13;5.50;;;2.85;;
22697;SDS011;11516;51.612;7.510;2022-07-29T10:59:42;6.47;;;3.08;;
22697;SDS011;11516;51.612;7.510;2022-07-29T11:07:22;5.60;;;3.00;;
22697;SDS011;11516;51.612;7.510;2022-07-29T11:15:15;6.13;;;2.90;;
22697;SDS011;11516;51.612;7.510;2022-07-29T11:22:58;8.10;;;3.40;;
22697;SDS011;11516;51.612;7.510;2022-07-29T11:25:24;5.07;;;2.95;;
22697;SDS011;11516;51.612;7.510;2022-07-29T11:27:51;6.47;;;3.30;;
22697;SDS011;11516;51.612;7.510;2022-07-29T11:30:18;6.43;;;2.70;;
22697;SDS011;11516;51.612;7.510;2022-07-29T11:32:44;6.55;;;3.28;;
22697;SDS011;11516;51.612;7.510;2022-07-29T11:35:22;4.80;;;2.60;;
22697;SDS011;11516;51.612;7.510;2022-07-29T11:46:16;7.40;;;3.15;;
22697;SDS011;11516;51.612;7.510;2022-07-29T11:49:00;5.55;;;2.72;;
22697;SDS011;11516;51.612;7.510;2022-07-29T11:51:27;6.15;;;3.08;;
22697;SDS011;11516;51.612;7.510;2022-07-29T11:53:53;8.55;;;2.90;;
22697;SDS011;11516;51.612;7.510;2022-07-29T11:56:20;6.97;;;2.88;;
22697;SDS011;11516;51.612;7.510;2022-07-29T11:58:46;7.18;;;2.95;;
22697;SDS011;11516;51.612;7.510;2022-07-29T12:01:13;5.72;;;2.83;;
22697;SDS011;11516;51.612;7.510;2022-07-29T12:03:41;9.02;;;3.63;;
22697;SDS011;11516;51.612;7.510;2022-07-29T12:06:13;3.83;;;2.77;;
22697;SDS011;11516;51.612;7.510;2022-07-29T12:08:40;5.65;;;2.75;;
22697;SDS011;11516;51.612;7.510;2022-07-29T12:11:14;6.10;;;2.72;;
22697;SDS011;11516;51.612;7.510;2022-07-29T12:13:41;5.50;;;2.70;;
22697;SDS011;11516;51.612;7.510;2022-07-29T12:16:07;7.95;;;3.17;;
22697;SDS011;11516;51.612;7.510;2022-07-29T12:18:32;5.35;;;2.72;;
22697;SDS011;11516;51.612;7.510;2022-07-29T12:20:58;3.85;;;2.78;;
22697;SDS011;11516;51.612;7.510;2022-07-29T12:23:24;5.90;;;2.70;;
22697;SDS011;11516;51.612;7.510;2022-07-29T12:25:50;5.70;;;3.05;;
22697;SDS011;11516;51.612;7.510;2022-07-29T12:28:16;6.60;;;2.90;;
22697;SDS011;11516;51.612;7.510;2022-07-29T12:30:47;5.50;;;2.90;;
22697;SDS011;11516;51.612;7.510;2022-07-29T12:35:49;7.00;;;2.90;;
22697;SDS011;11516;51.612;7.510;2022-07-29T12:38:16;6.90;;;4.53;;
22697;SDS011;11516;51.612;7.510;2022-07-29T12:40:43;6.10;;;3.13;;
22697;SDS011;11516;51.612;7.510;2022-07-29T12:45:41;6.30;;;3.38;;
22697;SDS011;11516;51.612;7.510;2022-07-29T12:48:09;8.38;;;3.65;;
22697;SDS011;11516;51.612;7.510;2022-07-29T12:50:36;8.27;;;3.47;;
22697;SDS011;11516;51.612;7.510;2022-07-29T12:53:16;6.03;;;3.47;;
22697;SDS011;11516;51.612;7.510;2022-07-29T12:55:42;7.13;;;3.30;;
22697;SDS011;11516;51.612;7.510;2022-07-29T12:58:29;6.63;;;3.60;;
22697;SDS011;11516;51.612;7.510;2022-07-29T13:06:27;7.07;;;3.75;;
22697;SDS011;11516;51.612;7.510;2022-07-29T13:09:03;8.02;;;3.90;;
22697;SDS011;11516;51.612;7.510;2022-07-29T13:11:46;4.75;;;3.50;;
22697;SDS011;11516;51.612;7.510;2022-07-29T13:14:13;6.70;;;3.42;;
22697;SDS011;11516;51.612;7.510;2022-07-29T13:17:03;5.82;;;3.47;;
22697;SDS011;11516;51.612;7.510;2022-07-29T13:19:48;5.10;;;3.72;;
22697;SDS011;11516;51.612;7.510;2022-07-29T13:22:17;5.65;;;3.75;;
22697;SDS011;11516;51.612;7.510;2022-07-29T13:24:51;7.80;;;4.05;;
22697;SDS011;11516;51.612;7.510;2022-07-29T13:27:18;7.28;;;4.13;;
22697;SDS011;11516;51.612;7.510;2022-07-29T13:29:46;7.32;;;4.00;;
22697;SDS011;11516;51.612;7.510;2022-07-29T13:32:11;10.93;;;4.60;;
22697;SDS011;11516;51.612;7.510;2022-07-29T13:34:38;5.95;;;3.92;;
22697;SDS011;11516;51.612;7.510;2022-07-29T13:37:04;6.47;;;4.30;;
22697;SDS011;11516;51.612;7.510;2022-07-29T13:39:30;6.72;;;4.03;;
22697;SDS011;11516;51.612;7.510;2022-07-29T13:41:55;7.28;;;3.92;;
22697;SDS011;11516;51.612;7.510;2022-07-29T13:44:21;6.55;;;3.55;;
22697;SDS011;11516;51.612;7.510;2022-07-29T13:46:47;6.40;;;3.88;;
22697;SDS011;11516;51.612;7.510;2022-07-29T13:49:12;6.10;;;4.20;;
22697;SDS011;11516;51.612;7.510;2022-07-29T13:51:38;5.75;;;3.70;;
22697;SDS011;11516;51.612;7.510;2022-07-29T13:54:04;5.72;;;3.50;;
22697;SDS011;11516;51.612;7.510;2022-07-29T13:56:29;7.03;;;3.93;;
22697;SDS011;11516;51.612;7.510;2022-07-29T13:58:55;9.48;;;3.70;;
22697;SDS011;11516;51.612;7.510;2022-07-29T14:01:22;7.88;;;3.60;;
22697;SDS011;11516;51.612;7.510;2022-07-29T14:03:47;6.80;;;3.80;;
22697;SDS011;11516;51.612;7.510;2022-07-29T14:06:13;6.70;;;3.30;;
22697;SDS011;11516;51.612;7.510;2022-07-29T14:08:39;9.57;;;3.60;;
22697;SDS011;11516;51.612;7.510;2022-07-29T14:11:05;5.90;;;3.47;;
22697;SDS011;11516;51.612;7.510;2022-07-29T14:13:30;5.70;;;3.23;;
22697;SDS011;11516;51.612;7.510;2022-07-29T14:15:56;7.87;;;3.23;;
22697;SDS011;11516;51.612;7.510;2022-07-29T14:18:22;6.33;;;3.10;;
22697;SDS011;11516;51.612;7.510;2022-07-29T14:20:48;6.57;;;3.40;;
22697;SDS011;11516;51.612;7.510;2022-07-29T14:23:13;7.07;;;3.13;;
22697;SDS011;11516;51.612;7.510;2022-07-29T14:25:39;4.27;;;2.90;;
22697;SDS011;11516;51.612;7.510;2022-07-29T14:28:04;5.75;;;2.70;;
22697;SDS011;11516;51.612;7.510;2022-07-29T14:30:30;8.00;;;3.38;;
22697;SDS011;11516;51.612;7.510;2022-07-29T14:32:55;8.18;;;3.00;;
22697;SDS011;11516;51.612;7.510;2022-07-29T14:35:21;7.57;;;3.30;;
22697;SDS011;11516;51.612;7.510;2022-07-29T14:37:47;5.97;;;3.40;;
22697;SDS011;11516;51.612;7.510;2022-07-29T14:40:12;7.10;;;3.30;;
22697;SDS011;11516;51.612;7.510;2022-07-29T14:42:38;4.82;;;2.72;;
22697;SDS011;11516;51.612;7.510;2022-07-29T14:45:04;6.07;;;2.90;;
22697;SDS011;11516;51.612;7.510;2022-07-29T14:47:31;5.10;;;2.80;;
22697;SDS011;11516;51.612;7.510;2022-07-29T14:49:57;5.60;;;2.88;;
22697;SDS011;11516;51.612;7.510;2022-07-29T14:52:22;5.78;;;3.38;;
22697;SDS011;11516;51.612;7.510;2022-07-29T14:54:48;7.20;;;4.27;;
22697;SDS011;11516;51.612;7.510;2022-07-29T14:57:13;4.40;;;2.90;;
22697;SDS011;11516;51.612;7.510;2022-07-29T14:59:39;5.77;;;2.67;;
22697;SDS011;11516;51.612;7.510;2022-07-29T15:02:05;6.78;;;3.08;;
22697;SDS011;11516;51.612;7.510;2022-07-29T15:04:30;6.33;;;3.00;;
22697;SDS011;11516;51.612;7.510;2022-07-29T15:06:56;5.67;;;3.07;;
22697;SDS011;11516;51.612;7.510;2022-07-29T15:09:21;5.90;;;3.10;;
22697;SDS011;11516;51.612;7.510;2022-07-29T15:11:47;7.60;;;3.20;;
22697;SDS011;11516;51.612;7.510;2022-07-29T15:14:12;8.20;;;2.80;;
22697;SDS011;11516;51.612;7.510;2022-07-29T15:16:38;5.43;;;3.17;;
22697;SDS011;11516;51.612;7.510;2022-07-29T15:19:08;5.93;;;2.60;;
22697;SDS011;11516;51.612;7.510;2022-07-29T15:21:33;6.17;;;2.60;;
22697;SDS011;11516;51.612;7.510;2022-07-29T15:23:59;4.27;;;2.60;;
22697;SDS011;11516;51.612;7.510;2022-07-29T15:26:25;6.67;;;2.80;;
22697;SDS011;11516;51.612;7.510;2022-07-29T15:28:51;6.43;;;2.40;;
22697;SDS011;11516;51.612;7.510;2022-07-29T15:31:16;7.87;;;3.60;;
22697;SDS011;11516;51.612;7.510;2022-07-29T15:33:43;4.07;;;2.95;;
22697;SDS011;11516;51.612;7.510;2022-07-29T15:36:09;5.53;;;3.63;;
22697;SDS011;11516;51.612;7.510;2022-07-29T15:38:37;6.10;;;2.95;;
22697;SDS011;11516;51.612;7.510;2022-07-29T15:41:03;5.57;;;3.22;;
22697;SDS011;11516;51.612;7.510;2022-07-29T15:43:28;6.30;;;2.80;;
22697;SDS011;11516;51.612;7.510;2022-07-29T15:45:54;5.53;;;2.90;;
22697;SDS011;11516;51.612;7.510;2022-07-29T15:48:38;6.97;;;3.10;;
22697;SDS011;11516;51.612;7.510;2022-07-29T15:51:04;5.55;;;2.67;;
22697;SDS011;11516;51.612;7.510;2022-07-29T15:53:30;3.75;;;2.63;;
22697;SDS011;11516;51.612;7.510;2022-07-29T15:55:55;4.57;;;3.00;;
22697;SDS011;11516;51.612;7.510;2022-07-29T15:58:21;5.10;;;2.63;;
22697;SDS011;11516;51.612;7.510;2022-07-29T16:00:47;6.10;;;2.83;;
22697;SDS011;11516;51.612;7.510;2022-07-29T16:03:13;5.85;;;2.67;;
22697;SDS011;11516;51.612;7.510;2022-07-29T16:05:39;6.53;;;2.93;;